createdAt,value
2022-08-28T00:01:35.448Z,101092.70
2022-08-28T00:03:42.040Z,101087.21
2022-08-28T00:05:53.055Z,101083.98
2022-08-28T00:08:23.678Z,101086.14
2022-08-28T00:10:34.209Z,101089.09
2022-08-28T00:13:14.901Z,101088.48
2022-08-28T00:15:48.230Z,101083.85
2022-08-28T00:18:01.901Z,101083.67
2022-08-28T00:20:13.715Z,101088.27
2022-08-28T00:22:29.598Z,101090.00
2022-08-28T00:24:37.240Z,101085.94
2022-08-28T00:27:03.486Z,101082.38
2022-08-28T00:29:10.754Z,101079.32
2022-08-28T00:31:17.632Z,101081.01
2022-08-28T00:33:44.010Z,101076.74
2022-08-28T00:35:54.101Z,101074.70
2022-08-28T00:38:37.469Z,101074.88
2022-08-28T00:41:00.124Z,101072.86
2022-08-28T00:43:59.955Z,101066.63
2022-08-28T00:46:10.474Z,101069.14
2022-08-28T00:48:34.882Z,101067.95
2022-08-28T00:51:43.122Z,101072.19
2022-08-28T00:54:34.988Z,101076.20
2022-08-28T00:56:48.722Z,101072.55
2022-08-28T00:59:18.238Z,101067.79
2022-08-28T01:01:56.086Z,101067.48
2022-08-28T01:04:07.252Z,101070.33
2022-08-28T01:06:16.401Z,101072.20
2022-08-28T01:08:23.015Z,101071.73
2022-08-28T01:10:55.311Z,101071.31
2022-08-28T01:13:03.249Z,101068.40
2022-08-28T01:15:26.259Z,101068.11
2022-08-28T01:17:46.548Z,101071.64
2022-08-28T01:20:15.251Z,101068.98
2022-08-28T01:22:45.198Z,101070.86
2022-08-28T01:25:01.035Z,101070.73
2022-08-28T01:27:16.722Z,101073.95
2022-08-28T01:29:33.060Z,101070.38
2022-08-28T01:32:28.240Z,101067.55
2022-08-28T01:34:41.389Z,101067.14
2022-08-28T01:36:49.987Z,101066.30
2022-08-28T01:39:41.060Z,101067.37
2022-08-28T01:42:07.391Z,101067.48
2022-08-28T01:44:34.778Z,101072.17
2022-08-28T01:47:30.993Z,101068.81
2022-08-28T01:50:32.048Z,101074.49
2022-08-28T01:53:00.510Z,101073.41
2022-08-28T01:55:09.084Z,101077.20
2022-08-28T01:57:22.552Z,101076.85
2022-08-28T01:59:51.453Z,101074.47
2022-08-28T02:02:20.665Z,101079.10
2022-08-28T02:04:38.664Z,101078.95
2022-08-28T02:07:24.186Z,101077.33
2022-08-28T02:09:37.485Z,101073.95
2022-08-28T02:11:49.394Z,101073.54
2022-08-28T02:14:06.929Z,101072.64
2022-08-28T02:16:37.171Z,101077.30
2022-08-28T02:19:04.633Z,101073.70
2022-08-28T02:21:24.900Z,101077.82
2022-08-28T02:23:31.767Z,101076.09
2022-08-28T02:25:47.692Z,101074.60
2022-08-28T02:28:42.223Z,101076.73
2022-08-28T02:30:51.961Z,101081.18
2022-08-28T02:33:01.520Z,101083.98
2022-08-28T02:35:12.735Z,101084.47
2022-08-28T02:37:23.073Z,101081.70
2022-08-28T02:42:20.450Z,101085.45
2022-08-28T02:44:26.723Z,101089.27
2022-08-28T02:46:33.140Z,101087.16
2022-08-28T02:48:41.602Z,101093.66
2022-08-28T02:50:48.379Z,101095.14
2022-08-28T02:52:55.281Z,101094.07
2022-08-28T02:55:01.364Z,101097.17
2022-08-28T02:57:10.132Z,101094.81
2022-08-28T02:59:19.152Z,101099.43
2022-08-28T03:01:26.099Z,101097.98
2022-08-28T03:03:33.459Z,101098.48
2022-08-28T03:05:39.459Z,101100.16
2022-08-28T03:07:45.506Z,101104.00
2022-08-28T03:09:51.997Z,101106.25
2022-08-28T03:11:58.095Z,101112.52
2022-08-28T03:14:05.954Z,101116.78
2022-08-28T03:16:12.679Z,101117.08
2022-08-28T03:18:19.745Z,101116.77
2022-08-28T03:20:26.012Z,101118.70
2022-08-28T03:22:50.864Z,101123.73
2022-08-28T03:24:56.994Z,101125.27
2022-08-28T03:27:02.976Z,101133.70
2022-08-28T03:29:09.093Z,101130.90
2022-08-28T03:31:21.282Z,101132.37
2022-08-28T03:33:28.080Z,101136.66
2022-08-28T03:35:35.024Z,101144.34
2022-08-28T03:37:42.135Z,101149.91
2022-08-28T03:39:48.691Z,101147.63
2022-08-28T03:41:57.474Z,101149.33
2022-08-28T03:44:04.013Z,101150.23
2022-08-28T03:46:14.144Z,101156.45
2022-08-28T03:48:21.212Z,101159.80
2022-08-28T03:50:27.682Z,101162.91
2022-08-28T03:52:36.057Z,101166.02
2022-08-28T03:54:42.046Z,101167.40
2022-08-28T03:56:48.566Z,101167.59
2022-08-28T03:58:58.557Z,101167.19
2022-08-28T04:01:05.474Z,101172.25
2022-08-28T04:03:14.861Z,101171.27
2022-08-28T04:05:21.760Z,101172.30
2022-08-28T04:07:31.282Z,101178.64
2022-08-28T04:09:37.363Z,101182.69
2022-08-28T04:11:43.736Z,101184.41
2022-08-28T04:13:50.085Z,101187.60
2022-08-28T04:16:06.406Z,101185.42
2022-08-28T04:18:13.914Z,101186.20
2022-08-28T04:20:21.657Z,101183.81
2022-08-28T04:22:27.741Z,101181.30
2022-08-28T04:24:34.387Z,101184.05
2022-08-28T04:26:40.819Z,101186.45
2022-08-28T04:28:48.543Z,101185.73
2022-08-28T04:30:56.278Z,101187.23
2022-08-28T04:33:02.277Z,101188.41
2022-08-28T04:35:13.270Z,101191.84
2022-08-28T04:37:20.544Z,101194.68
2022-08-28T04:39:29.164Z,101194.23
2022-08-28T04:41:37.830Z,101192.60
2022-08-28T04:43:44.940Z,101197.15
2022-08-28T04:45:51.269Z,101195.13
2022-08-28T04:47:57.374Z,101195.39
2022-08-28T04:50:08.183Z,101193.11
2022-08-28T04:52:14.424Z,101196.25
2022-08-28T04:54:20.561Z,101194.88
2022-08-28T04:56:27.734Z,101194.65
2022-08-28T04:58:35.348Z,101192.17
2022-08-28T05:00:43.567Z,101194.11
2022-08-28T05:02:49.695Z,101189.92
2022-08-28T05:04:55.850Z,101190.21
2022-08-28T05:07:01.716Z,101188.48
2022-08-28T05:09:08.589Z,101190.02
2022-08-28T05:11:32.854Z,101186.36
2022-08-28T05:13:40.783Z,101185.22
2022-08-28T05:15:51.050Z,101186.99
2022-08-28T05:17:57.069Z,101184.56
2022-08-28T05:20:03.592Z,101182.83
2022-08-28T05:22:13.072Z,101183.80
2022-08-28T05:24:19.945Z,101190.80
2022-08-28T05:26:28.434Z,101185.84
2022-08-28T05:28:36.349Z,101193.06
2022-08-28T05:30:44.532Z,101194.36
2022-08-28T05:32:50.511Z,101197.16
2022-08-28T05:34:56.469Z,101199.58
2022-08-28T05:37:03.242Z,101193.97
2022-08-28T05:39:12.659Z,101197.39
2022-08-28T05:41:23.931Z,101201.45
2022-08-28T05:43:30.602Z,101209.30
2022-08-28T05:45:36.613Z,101204.73
2022-08-28T05:47:43.245Z,101207.05
2022-08-28T05:49:49.204Z,101204.98
2022-08-28T05:51:58.622Z,101212.06
2022-08-28T05:54:05.026Z,101209.37
2022-08-28T05:56:16.678Z,101209.86
2022-08-28T05:58:32.690Z,101211.70
2022-08-28T06:00:38.968Z,101207.75
2022-08-28T06:02:46.003Z,101207.83
2022-08-28T06:04:52.496Z,101213.90
2022-08-28T06:06:59.357Z,101213.61
2022-08-28T06:09:14.811Z,101214.95
2022-08-28T06:11:24.719Z,101215.20
2022-08-28T06:13:31.714Z,101212.84
2022-08-28T06:15:44.140Z,101215.78
2022-08-28T06:17:50.923Z,101216.49
2022-08-28T06:19:57.321Z,101214.29
2022-08-28T06:22:07.395Z,101218.16
2022-08-28T06:24:14.828Z,101217.70
2022-08-28T06:26:21.094Z,101217.86
2022-08-28T06:28:29.515Z,101216.12
2022-08-28T06:30:41.875Z,101220.32
2022-08-28T06:33:07.728Z,101223.58
2022-08-28T06:35:15.823Z,101222.85
2022-08-28T06:37:22.212Z,101222.70
2022-08-28T06:39:28.948Z,101218.19
2022-08-28T06:41:36.644Z,101216.20
2022-08-28T06:43:43.310Z,101221.29
2022-08-28T06:45:55.527Z,101218.58
2022-08-28T06:48:02.352Z,101216.68
2022-08-28T06:50:09.003Z,101218.27
2022-08-28T06:52:15.550Z,101213.44
2022-08-28T06:54:23.463Z,101213.45
2022-08-28T06:56:29.819Z,101212.88
2022-08-28T06:58:41.903Z,101211.45
2022-08-28T07:00:50.893Z,101209.70
2022-08-28T07:03:03.193Z,101210.62
2022-08-28T07:05:12.865Z,101213.00
2022-08-28T07:07:32.387Z,101213.54
2022-08-28T07:09:38.932Z,101215.83
2022-08-28T07:11:47.924Z,101216.06
2022-08-28T07:13:55.101Z,101220.56
2022-08-28T07:16:01.501Z,101216.38
2022-08-28T07:18:08.428Z,101220.47
2022-08-28T07:20:15.426Z,101219.36
2022-08-28T07:22:21.876Z,101218.33
2022-08-28T07:24:30.501Z,101224.02
2022-08-28T07:26:37.307Z,101226.23
2022-08-28T07:28:43.745Z,101227.88
2022-08-28T07:31:03.639Z,101224.55
2022-08-28T07:33:09.858Z,101230.39
2022-08-28T07:35:16.462Z,101227.61
2022-08-28T07:37:23.158Z,101224.98
2022-08-28T07:39:29.431Z,101223.02
2022-08-28T07:41:40.205Z,101226.06
2022-08-28T07:44:05.787Z,101220.47
2022-08-28T07:46:15.429Z,101215.53
2022-08-28T07:48:21.737Z,101219.88
2022-08-28T07:50:28.045Z,101214.59
2022-08-28T07:52:34.305Z,101213.37
2022-08-28T07:54:41.683Z,101210.36
2022-08-28T07:56:51.011Z,101208.55
2022-08-28T07:59:01.656Z,101207.74
2022-08-28T08:01:08.439Z,101203.62
2022-08-28T08:03:15.349Z,101203.20
2022-08-28T08:05:22.249Z,101207.09
2022-08-28T08:07:29.768Z,101202.89
2022-08-28T08:09:44.505Z,101205.08
2022-08-28T08:11:50.702Z,101207.28
2022-08-28T08:13:58.975Z,101205.42
2022-08-28T08:16:09.621Z,101205.84
2022-08-28T08:18:16.962Z,101205.02
2022-08-28T08:20:26.786Z,101206.00
2022-08-28T08:22:33.128Z,101202.21
2022-08-28T08:24:39.385Z,101203.85
2022-08-28T08:26:50.867Z,101201.14
2022-08-28T08:29:06.352Z,101204.21
2022-08-28T08:31:17.515Z,101200.73
2022-08-28T08:33:23.895Z,101200.16
2022-08-28T08:35:29.866Z,101204.26
2022-08-28T08:37:36.016Z,101204.64
2022-08-28T08:39:43.443Z,101203.42
2022-08-28T08:41:55.355Z,101207.53
2022-08-28T08:44:09.137Z,101205.70
2022-08-28T08:46:15.450Z,101208.82
2022-08-28T08:48:33.530Z,101209.84
2022-08-28T08:50:40.001Z,101215.60
2022-08-28T08:53:09.105Z,101217.23
2022-08-28T08:55:23.354Z,101216.58
2022-08-28T08:57:30.315Z,101217.73
2022-08-28T08:59:40.067Z,101214.09
2022-08-28T09:02:08.925Z,101213.92
2022-08-28T09:04:41.867Z,101213.29
2022-08-28T09:06:56.411Z,101209.80
2022-08-28T09:09:08.645Z,101210.41
2022-08-28T09:11:56.574Z,101205.66
2022-08-28T09:14:29.561Z,101202.80
2022-08-28T09:16:42.404Z,101203.39
2022-08-28T09:18:50.126Z,101199.27
2022-08-28T09:21:00.690Z,101199.78
2022-08-28T09:23:12.396Z,101198.75
2022-08-28T09:25:51.432Z,101196.34
2022-08-28T09:28:10.891Z,101200.09
2022-08-28T09:30:29.931Z,101207.43
2022-08-28T09:32:44.726Z,101210.69
2022-08-28T09:35:20.129Z,101213.16
2022-08-28T09:37:33.464Z,101211.17
2022-08-28T09:39:40.139Z,101206.92
2022-08-28T09:42:35.033Z,101205.10
2022-08-28T09:44:55.919Z,101202.45
2022-08-28T09:47:02.089Z,101199.98
2022-08-28T09:49:16.040Z,101202.41
2022-08-28T09:51:22.632Z,101198.36
2022-08-28T09:53:30.231Z,101193.58
2022-08-28T09:56:13.548Z,101192.38
2022-08-28T09:58:19.797Z,101189.28
2022-08-28T10:00:26.055Z,101193.13
2022-08-28T10:02:50.345Z,101194.54
2022-08-28T10:05:05.070Z,101196.02
2022-08-28T10:07:39.923Z,101198.38
2022-08-28T10:10:02.878Z,101196.51
2022-08-28T10:12:31.123Z,101197.95
2022-08-28T10:14:43.166Z,101189.55
2022-08-28T10:17:03.723Z,101190.65
2022-08-28T10:19:17.534Z,101184.89
2022-08-28T10:21:35.487Z,101182.44
2022-08-28T10:23:47.150Z,101181.55
2022-08-28T10:26:31.231Z,101181.92
2022-08-28T10:28:57.878Z,101178.59
2022-08-28T10:31:27.067Z,101180.00
2022-08-28T10:33:55.535Z,101182.02
2022-08-28T10:36:33.334Z,101186.40
2022-08-28T10:38:49.478Z,101184.88
2022-08-28T10:41:23.764Z,101187.11
2022-08-28T10:43:48.326Z,101185.45
2022-08-28T10:45:55.978Z,101185.59
2022-08-28T10:48:25.891Z,101184.95
2022-08-28T10:50:40.337Z,101183.50
2022-08-28T10:52:57.106Z,101180.25
2022-08-28T10:55:25.320Z,101183.45
2022-08-28T10:57:50.306Z,101185.48
2022-08-28T10:59:56.297Z,101185.98
2022-08-28T11:02:06.802Z,101184.16
2022-08-28T11:04:25.452Z,101183.19
2022-08-28T11:06:44.985Z,101178.66
2022-08-28T11:09:00.126Z,101175.16
2022-08-28T11:11:12.088Z,101177.03
2022-08-28T11:13:55.814Z,101180.86
2022-08-28T11:16:02.083Z,101176.58
2022-08-28T11:18:17.702Z,101170.73
2022-08-28T11:20:30.782Z,101171.20
2022-08-28T11:22:53.982Z,101173.16
2022-08-28T11:25:09.646Z,101174.59
2022-08-28T11:27:36.447Z,101174.89
2022-08-28T11:30:01.371Z,101178.80
2022-08-28T11:32:37.784Z,101178.45
2022-08-28T11:35:05.794Z,101179.45
2022-08-28T11:37:42.348Z,101180.47
2022-08-28T11:39:49.031Z,101177.11
2022-08-28T11:42:14.951Z,101178.88
2022-08-28T11:44:40.069Z,101181.36
2022-08-28T11:46:48.506Z,101181.31
2022-08-28T11:48:59.031Z,101183.89
2022-08-28T11:51:31.912Z,101185.44
2022-08-28T11:53:49.343Z,101184.85
2022-08-28T11:56:01.955Z,101184.81
2022-08-28T11:58:26.625Z,101185.27
2022-08-28T12:01:02.611Z,101188.38
2022-08-28T12:03:12.159Z,101187.48
2022-08-28T12:05:18.832Z,101186.42
2022-08-28T12:07:34.624Z,101186.32
2022-08-28T12:09:45.260Z,101189.30
2022-08-28T12:11:54.082Z,101188.23
2022-08-28T12:14:00.749Z,101186.47
2022-08-28T12:16:08.736Z,101185.05
2022-08-28T12:18:14.712Z,101184.96
2022-08-28T12:20:42.888Z,101183.42
2022-08-28T12:22:54.288Z,101185.13
2022-08-28T12:25:07.712Z,101183.81
2022-08-28T12:27:15.125Z,101184.58
2022-08-28T12:29:49.513Z,101179.98
2022-08-28T12:32:12.435Z,101178.91
2022-08-28T12:34:31.306Z,101176.76
2022-08-28T12:36:37.806Z,101183.68
2022-08-28T12:38:51.542Z,101186.52
2022-08-28T12:40:57.571Z,101187.13
2022-08-28T12:43:07.829Z,101189.54
2022-08-28T12:45:36.144Z,101184.34
2022-08-28T12:47:46.945Z,101179.18
2022-08-28T12:49:53.163Z,101179.29
2022-08-28T12:52:32.222Z,101176.89
2022-08-28T12:54:38.585Z,101178.52
2022-08-28T12:56:45.464Z,101177.59
2022-08-28T12:58:52.866Z,101181.10
2022-08-28T13:01:02.634Z,101175.96
2022-08-28T13:03:08.938Z,101182.70
2022-08-28T13:05:37.168Z,101179.73
2022-08-28T13:07:50.671Z,101182.92
2022-08-28T13:09:59.267Z,101177.63
2022-08-28T13:12:07.449Z,101180.73
2022-08-28T13:14:14.092Z,101181.09
2022-08-28T13:16:37.184Z,101182.08
2022-08-28T13:18:47.192Z,101188.45
2022-08-28T13:20:53.388Z,101190.53
2022-08-28T13:23:01.441Z,101193.10
2022-08-28T13:25:08.242Z,101196.42
2022-08-28T13:27:14.178Z,101198.14
2022-08-28T13:29:23.841Z,101195.83
2022-08-28T13:31:37.018Z,101201.00
2022-08-28T13:33:43.073Z,101202.40
2022-08-28T13:35:49.856Z,101207.16
2022-08-28T13:37:59.315Z,101208.39
2022-08-28T13:40:09.634Z,101210.84
2022-08-28T13:42:22.059Z,101211.77
2022-08-28T13:44:34.697Z,101219.56
2022-08-28T13:46:40.744Z,101213.90
2022-08-28T13:48:46.791Z,101215.09
2022-08-28T13:51:04.948Z,101216.20
2022-08-28T13:53:15.194Z,101212.32
2022-08-28T13:55:21.323Z,101211.27
2022-08-28T13:57:29.901Z,101208.79
2022-08-28T13:59:36.900Z,101211.92
2022-08-28T14:02:03.359Z,101214.18
2022-08-28T14:04:09.324Z,101214.83
2022-08-28T14:06:18.413Z,101217.73
2022-08-28T14:08:25.128Z,101217.58
2022-08-28T14:10:31.155Z,101221.15
2022-08-28T14:12:37.228Z,101224.62
2022-08-28T14:14:43.364Z,101228.10
2022-08-28T14:16:51.419Z,101228.30
2022-08-28T14:18:57.504Z,101227.61
2022-08-28T14:21:06.574Z,101227.52
2022-08-28T14:23:12.745Z,101230.22
2022-08-28T14:25:19.181Z,101235.23
2022-08-28T14:27:25.269Z,101245.08
2022-08-28T14:29:32.606Z,101244.09
2022-08-28T14:31:41.858Z,101243.14
2022-08-28T14:33:48.249Z,101237.45
2022-08-28T14:35:54.559Z,101239.54
2022-08-28T14:38:00.947Z,101241.79
2022-08-28T14:40:08.081Z,101239.23
2022-08-28T14:42:14.363Z,101237.16
2022-08-28T14:44:21.967Z,101240.17
2022-08-28T14:46:31.819Z,101237.46
2022-08-28T14:48:38.310Z,101238.34
2022-08-28T14:50:45.787Z,101248.36
2022-08-28T14:52:51.813Z,101249.41
2022-08-28T14:54:58.317Z,101251.43
2022-08-28T14:57:05.371Z,101250.09
2022-08-28T14:59:18.418Z,101250.59
2022-08-28T15:01:40.943Z,101249.04
2022-08-28T15:03:47.724Z,101248.71
2022-08-28T15:06:09.951Z,101249.20
2022-08-28T15:08:18.905Z,101250.84
2022-08-28T15:10:25.645Z,101250.14
2022-08-28T15:12:32.756Z,101249.73
2022-08-28T15:14:38.974Z,101250.98
2022-08-28T15:16:47.742Z,101249.12
2022-08-28T15:18:56.693Z,101249.90
2022-08-28T15:21:03.880Z,101247.86
2022-08-28T15:23:11.124Z,101247.45
2022-08-28T15:25:17.379Z,101245.41
2022-08-28T15:27:25.023Z,101245.75
2022-08-28T15:29:31.877Z,101246.09
2022-08-28T15:31:42.410Z,101247.73
2022-08-28T15:33:48.818Z,101240.42
2022-08-28T15:35:58.962Z,101240.47
2022-08-28T15:38:06.845Z,101239.40
2022-08-28T15:40:31.842Z,101240.05
2022-08-28T15:42:38.344Z,101232.66
2022-08-28T15:44:45.428Z,101231.71
2022-08-28T15:47:05.884Z,101232.00
2022-08-28T15:49:12.265Z,101234.63
2022-08-28T15:51:22.746Z,101241.33
2022-08-28T15:53:32.222Z,101241.42
2022-08-28T15:55:38.461Z,101242.82
2022-08-28T15:57:45.506Z,101238.58
2022-08-28T15:59:51.913Z,101235.81
2022-08-28T16:01:58.021Z,101237.65
2022-08-28T16:04:05.354Z,101239.33
2022-08-28T16:06:18.006Z,101237.13
2022-08-28T16:08:24.578Z,101238.96
2022-08-28T16:10:31.815Z,101239.75
2022-08-28T16:12:41.290Z,101242.66
2022-08-28T16:14:47.461Z,101241.04
2022-08-28T16:16:53.717Z,101242.23
2022-08-28T16:19:00.474Z,101243.99
2022-08-28T16:21:07.591Z,101241.02
2022-08-28T16:23:15.255Z,101242.06
2022-08-28T16:25:21.731Z,101237.96
2022-08-28T16:27:28.087Z,101237.08
2022-08-28T16:29:35.424Z,101232.31
2022-08-28T16:31:42.813Z,101233.40
2022-08-28T16:33:49.853Z,101234.31
2022-08-28T16:35:57.174Z,101230.19
2022-08-28T16:38:03.673Z,101227.74
2022-08-28T16:40:10.826Z,101219.42
2022-08-28T16:42:17.275Z,101223.36
2022-08-28T16:44:26.481Z,101217.02
2022-08-28T16:46:32.802Z,101220.53
2022-08-28T16:48:39.199Z,101216.81
2022-08-28T16:50:46.120Z,101213.91
2022-08-28T16:52:52.826Z,101211.19
2022-08-28T16:55:00.338Z,101216.54
2022-08-28T16:57:06.681Z,101216.14
2022-08-28T16:59:23.370Z,101213.66
2022-08-28T17:01:31.167Z,101213.92
2022-08-28T17:03:38.461Z,101217.82
2022-08-28T17:05:44.850Z,101221.86
2022-08-28T17:07:51.319Z,101217.16
2022-08-28T17:09:57.269Z,101213.68
2022-08-28T17:12:03.960Z,101213.77
2022-08-28T17:14:12.075Z,101213.05
2022-08-28T17:16:20.114Z,101206.45
2022-08-28T17:18:27.104Z,101207.67
2022-08-28T17:20:51.918Z,101209.48
2022-08-28T17:22:58.270Z,101209.10
2022-08-28T17:25:10.559Z,101205.52
2022-08-28T17:27:22.375Z,101199.47
2022-08-28T17:29:29.952Z,101199.94
2022-08-28T17:31:36.936Z,101201.31
2022-08-28T17:33:45.322Z,101200.39
2022-08-28T17:35:52.136Z,101204.29
2022-08-28T17:37:58.763Z,101202.11
2022-08-28T17:40:07.064Z,101201.38
2022-08-28T17:42:13.755Z,101200.48
2022-08-28T17:44:19.933Z,101194.92
2022-08-28T17:46:27.199Z,101193.93
2022-08-28T17:48:33.795Z,101193.44
2022-08-28T17:50:40.375Z,101192.12
2022-08-28T17:52:46.433Z,101188.25
2022-08-28T17:54:52.763Z,101189.13
2022-08-28T17:57:01.382Z,101191.20
2022-08-28T17:59:07.720Z,101189.84
2022-08-28T18:01:19.307Z,101188.79
2022-08-28T18:03:25.790Z,101188.02
2022-08-28T18:05:32.106Z,101184.96
2022-08-28T18:07:38.747Z,101183.98
2022-08-28T18:09:44.812Z,101177.20
2022-08-28T18:11:52.274Z,101171.46
2022-08-28T18:13:58.759Z,101166.27
2022-08-28T18:16:05.676Z,101170.87
2022-08-28T18:18:14.596Z,101167.61
2022-08-28T18:20:21.443Z,101170.03
2022-08-28T18:22:29.828Z,101163.56
2022-08-28T18:24:36.520Z,101156.96
2022-08-28T18:26:43.607Z,101157.38
2022-08-28T18:28:50.769Z,101159.02
2022-08-28T18:30:58.126Z,101159.06
2022-08-28T18:33:11.040Z,101152.50
2022-08-28T18:35:17.812Z,101145.59
2022-08-28T18:37:36.723Z,101144.55
2022-08-28T18:39:42.719Z,101145.04
2022-08-28T18:41:51.527Z,101143.27
2022-08-28T18:43:58.545Z,101138.59
2022-08-28T18:46:11.461Z,101138.05
2022-08-28T18:48:19.533Z,101134.00
2022-08-28T18:50:28.173Z,101128.27
2022-08-28T18:52:34.858Z,101130.04
2022-08-28T18:54:40.999Z,101131.68
2022-08-28T18:56:50.395Z,101130.56
2022-08-28T18:58:56.697Z,101126.98
2022-08-28T19:01:03.579Z,101126.65
2022-08-28T19:03:10.276Z,101123.41
2022-08-28T19:05:16.813Z,101122.02
2022-08-28T19:07:23.581Z,101120.29
2022-08-28T19:09:32.477Z,101119.64
2022-08-28T19:11:40.392Z,101113.34
2022-08-28T19:13:47.297Z,101108.78
2022-08-28T19:15:54.307Z,101103.23
2022-08-28T19:18:04.426Z,101101.13
2022-08-28T19:20:16.474Z,101099.38
2022-08-28T19:22:23.811Z,101099.17
2022-08-28T19:24:34.831Z,101093.23
2022-08-28T19:26:41.219Z,101095.89
2022-08-28T19:28:47.643Z,101087.58
2022-08-28T19:30:54.377Z,101085.08
2022-08-28T19:33:02.433Z,101083.60
2022-08-28T19:35:09.644Z,101081.78
2022-08-28T19:37:17.257Z,101074.95
2022-08-28T19:39:24.281Z,101075.51
2022-08-28T19:41:30.753Z,101075.44
2022-08-28T19:43:43.229Z,101072.02
2022-08-28T19:45:51.039Z,101064.61
2022-08-28T19:47:57.025Z,101067.21
2022-08-28T19:50:03.164Z,101066.27
2022-08-28T19:52:09.493Z,101063.11
2022-08-28T19:54:16.929Z,101064.91
2022-08-28T19:56:28.090Z,101059.71
2022-08-28T19:58:37.928Z,101061.93
2022-08-28T20:00:44.937Z,101053.17
2022-08-28T20:02:53.291Z,101053.10
2022-08-28T20:05:00.603Z,101052.48
2022-08-28T20:07:06.706Z,101051.23
2022-08-28T20:09:13.653Z,101051.73
2022-08-28T20:11:29.089Z,101044.61
2022-08-28T20:13:36.781Z,101042.33
2022-08-28T20:15:47.904Z,101040.70
2022-08-28T20:17:55.292Z,101034.10
2022-08-28T20:20:03.538Z,101029.78
2022-08-28T20:22:10.304Z,101027.41
2022-08-28T20:24:23.160Z,101020.16
2022-08-28T20:26:29.175Z,101017.46
2022-08-28T20:28:35.214Z,101013.23
2022-08-28T20:30:42.844Z,101006.06
2022-08-28T20:32:49.968Z,101010.14
2022-08-28T20:34:56.615Z,101004.20
2022-08-28T20:37:02.994Z,100999.80
2022-08-28T20:39:13.209Z,100994.08
2022-08-28T20:41:21.344Z,100992.27
2022-08-28T20:43:27.814Z,100992.86
2022-08-28T20:45:33.989Z,100996.42
2022-08-28T20:47:39.970Z,100990.46
2022-08-28T20:49:46.027Z,100988.35
2022-08-28T20:51:57.858Z,100984.05
2022-08-28T20:54:03.832Z,100982.97
2022-08-28T20:56:11.933Z,100978.66
2022-08-28T20:58:18.312Z,100978.61
2022-08-28T21:00:26.000Z,100970.95
2022-08-28T21:02:32.320Z,100971.30
2022-08-28T21:04:40.146Z,100971.25
2022-08-28T21:06:48.958Z,100970.83
2022-08-28T21:08:57.378Z,100967.55
2022-08-28T21:11:03.432Z,100959.45
2022-08-28T21:13:10.911Z,100957.52
2022-08-28T21:15:17.598Z,100951.90
2022-08-28T21:17:30.291Z,100945.70
2022-08-28T21:19:40.563Z,100947.65
2022-08-28T21:21:47.212Z,100948.56
2022-08-28T21:23:54.949Z,100945.73
2022-08-28T21:26:01.181Z,100944.48
2022-08-28T21:28:07.354Z,100944.46
2022-08-28T21:30:16.883Z,100943.37
2022-08-28T21:32:23.118Z,100937.59
2022-08-28T21:34:29.720Z,100936.90
2022-08-28T21:36:36.510Z,100934.17
2022-08-28T21:38:43.159Z,100928.83
2022-08-28T21:40:49.760Z,100927.13
2022-08-28T21:42:55.923Z,100925.27
2022-08-28T21:45:11.272Z,100919.05
2022-08-28T21:47:19.239Z,100916.70
2022-08-28T21:49:26.069Z,100910.78
2022-08-28T21:51:35.553Z,100907.94
2022-08-28T21:53:45.944Z,100906.32
2022-08-28T21:56:01.952Z,100901.01
2022-08-28T21:58:14.469Z,100903.38
2022-08-28T22:00:24.705Z,100904.71
2022-08-28T22:02:31.504Z,100899.45
2022-08-28T22:04:38.824Z,100897.73
2022-08-28T22:06:45.069Z,100895.95
2022-08-28T22:08:56.192Z,100894.10
2022-08-28T22:11:05.878Z,100885.06
2022-08-28T22:13:13.701Z,100886.56
2022-08-28T22:15:20.355Z,100886.14
2022-08-28T22:17:27.336Z,100874.33
2022-08-28T22:19:33.523Z,100873.84
2022-08-28T22:21:58.084Z,100868.14
2022-08-28T22:24:04.530Z,100868.02
2022-08-28T22:26:14.364Z,100870.36
2022-08-28T22:28:20.731Z,100869.27
2022-08-28T22:30:27.365Z,100868.80
2022-08-28T22:32:34.418Z,100865.73
2022-08-28T22:34:44.123Z,100867.98
2022-08-28T22:36:50.708Z,100864.59
2022-08-28T22:38:57.647Z,100858.86
2022-08-28T22:41:04.757Z,100853.92
2022-08-28T22:43:11.321Z,100849.27
2022-08-28T22:45:21.577Z,100844.66
2022-08-28T22:47:28.108Z,100844.09
2022-08-28T22:49:34.635Z,100841.91
2022-08-28T22:51:45.213Z,100832.27
2022-08-28T22:53:51.524Z,100828.94
2022-08-28T22:55:57.911Z,100828.98
2022-08-28T22:58:05.227Z,100824.73
2022-08-28T23:00:18.904Z,100819.34
2022-08-28T23:02:27.256Z,100815.39
2022-08-28T23:04:35.577Z,100811.20
2022-08-28T23:06:42.472Z,100807.04
2022-08-28T23:08:49.107Z,100807.60
2022-08-28T23:10:59.307Z,100805.73
2022-08-28T23:13:05.704Z,100800.58
2022-08-28T23:15:15.853Z,100800.94
2022-08-28T23:17:22.169Z,100798.39
2022-08-28T23:19:31.542Z,100795.55
2022-08-28T23:21:40.781Z,100794.02
2022-08-28T23:23:51.041Z,100795.00
2022-08-28T23:25:57.142Z,100794.07
2022-08-28T23:28:06.507Z,100796.36
2022-08-28T23:30:15.151Z,100794.94
2022-08-28T23:32:21.208Z,100794.73
2022-08-28T23:35:41.939Z,100788.91
2022-08-28T23:37:52.019Z,100784.48
2022-08-28T23:39:58.438Z,100784.87
2022-08-28T23:42:06.966Z,100782.86
2022-08-28T23:44:14.069Z,100777.39
2022-08-28T23:46:21.906Z,100772.00
2022-08-28T23:48:28.937Z,100773.05
2022-08-28T23:50:36.375Z,100769.27
2022-08-28T23:52:44.267Z,100761.77
2022-08-28T23:54:51.133Z,100765.00
2022-08-28T23:56:57.622Z,100756.27
2022-08-28T23:59:05.046Z,100755.94
